createdAt,value
2022-11-04T00:02:00.291Z,8.31
2022-11-04T00:04:28.344Z,8.33
2022-11-04T00:06:55.880Z,8.27
2022-11-04T00:09:25.213Z,8.26
2022-11-04T00:12:10.254Z,8.30
2022-11-04T00:14:37.280Z,8.26
2022-11-04T00:17:21.837Z,8.14
2022-11-04T00:20:13.796Z,8.13
2022-11-04T00:23:00.711Z,8.14
2022-11-04T00:25:45.905Z,8.19
2022-11-04T00:28:39.597Z,8.21
2022-11-04T00:31:26.345Z,8.16
2022-11-04T00:33:54.805Z,8.12
2022-11-04T00:36:23.591Z,8.19
2022-11-04T00:38:50.164Z,8.25
2022-11-04T00:41:29.703Z,8.27
2022-11-04T00:43:59.056Z,8.22
2022-11-04T00:46:26.204Z,8.27
2022-11-04T00:48:53.012Z,8.27
2022-11-04T00:51:21.319Z,8.15
2022-11-04T00:53:48.130Z,8.15
2022-11-04T00:56:14.566Z,8.20
2022-11-04T00:58:40.995Z,8.23
2022-11-04T01:01:09.548Z,8.16
2022-11-04T01:03:36.585Z,8.19
2022-11-04T01:06:03.129Z,8.13
2022-11-04T01:08:29.634Z,8.04
2022-11-04T01:10:56.060Z,8.04
2022-11-04T01:13:22.504Z,8.10
2022-11-04T01:15:48.929Z,8.06
2022-11-04T01:18:15.352Z,7.97
2022-11-04T01:20:41.769Z,7.96
2022-11-04T01:23:08.203Z,7.95
2022-11-04T01:25:34.972Z,8.05
2022-11-04T01:28:01.392Z,7.96
2022-11-04T01:30:27.804Z,7.85
2022-11-04T01:32:54.226Z,7.86
2022-11-04T01:35:20.643Z,7.81
2022-11-04T01:37:47.064Z,7.92
2022-11-04T01:40:13.504Z,7.88
2022-11-04T01:42:39.947Z,7.74
2022-11-04T01:45:13.472Z,7.79
2022-11-04T01:47:43.436Z,7.76
2022-11-04T01:50:26.884Z,7.73
2022-11-04T01:52:59.012Z,7.75
2022-11-04T01:55:32.975Z,7.76
2022-11-04T01:58:09.147Z,7.69
2022-11-04T02:00:38.898Z,7.62
2022-11-04T02:03:15.978Z,7.59
2022-11-04T02:05:43.895Z,7.62
2022-11-04T02:08:12.203Z,7.62
2022-11-04T02:10:41.381Z,7.58
2022-11-04T02:13:08.528Z,7.58
2022-11-04T02:15:39.862Z,7.50
2022-11-04T02:18:32.441Z,7.44
2022-11-04T02:21:34.368Z,7.47
2022-11-04T02:24:13.626Z,7.49
2022-11-04T02:27:01.052Z,7.47
2022-11-04T02:33:23.366Z,7.36
2022-11-04T02:36:06.081Z,7.36
2022-11-04T02:38:42.543Z,7.39
2022-11-04T02:41:35.327Z,7.37
2022-11-04T02:44:21.113Z,7.30
2022-11-04T02:47:00.172Z,7.33
2022-11-04T02:49:34.753Z,7.33
2022-11-04T02:52:11.234Z,7.34
2022-11-04T02:54:44.007Z,7.32
2022-11-04T02:57:16.069Z,7.18
2022-11-04T02:59:49.500Z,7.02
2022-11-04T03:02:23.800Z,7.02
2022-11-04T03:04:52.833Z,7.08
2022-11-04T03:07:29.021Z,7.12
2022-11-04T03:10:03.521Z,7.17
2022-11-04T03:12:36.998Z,6.86
2022-11-04T03:15:09.858Z,6.88
2022-11-04T03:18:06.980Z,6.93
2022-11-04T03:20:36.714Z,6.85
2022-11-04T03:23:03.333Z,6.89
2022-11-04T03:25:36.400Z,6.94
2022-11-04T03:28:35.969Z,6.87
2022-11-04T03:31:06.127Z,6.82
2022-11-04T03:33:47.291Z,6.90
2022-11-04T03:36:13.960Z,6.95
2022-11-04T03:38:40.648Z,7.00
2022-11-04T03:41:18.371Z,7.06
2022-11-04T03:43:44.966Z,7.14
2022-11-04T03:46:11.871Z,7.17
2022-11-04T03:48:38.468Z,7.21
2022-11-04T03:51:05.016Z,7.25
2022-11-04T03:53:31.984Z,7.29
2022-11-04T03:56:07.630Z,7.31
2022-11-04T03:58:49.357Z,7.27
2022-11-04T04:01:48.203Z,7.22
2022-11-04T04:04:28.976Z,7.18
2022-11-04T04:07:08.161Z,6.96
2022-11-04T04:09:42.455Z,7.04
2022-11-04T04:12:25.900Z,7.11
2022-11-04T04:14:57.089Z,7.12
2022-11-04T04:17:37.961Z,7.17
2022-11-04T04:20:09.099Z,7.11
2022-11-04T04:22:47.191Z,7.06
2022-11-04T04:25:35.264Z,6.96
2022-11-04T04:28:04.212Z,6.95
2022-11-04T04:30:31.121Z,6.95
2022-11-04T04:33:11.526Z,6.78
2022-11-04T04:35:44.635Z,6.78
2022-11-04T04:39:00.096Z,6.80
2022-11-04T04:41:51.001Z,6.85
2022-11-04T04:44:43.446Z,6.75
2022-11-04T04:47:19.868Z,6.67
2022-11-04T04:49:52.824Z,6.71
2022-11-04T04:52:20.291Z,6.79
2022-11-04T04:54:46.765Z,6.78
2022-11-04T04:57:13.205Z,6.72
2022-11-04T04:59:39.668Z,6.67
2022-11-04T05:02:06.275Z,6.62
2022-11-04T05:04:32.778Z,6.59
2022-11-04T05:06:59.255Z,6.56
2022-11-04T05:09:25.697Z,6.50
2022-11-04T05:11:52.210Z,6.45
2022-11-04T05:14:18.946Z,6.40
2022-11-04T05:16:45.404Z,6.46
2022-11-04T05:19:11.856Z,6.42
2022-11-04T05:21:38.349Z,6.37
2022-11-04T05:24:04.931Z,6.41
2022-11-04T05:26:31.397Z,6.45
2022-11-04T05:28:57.818Z,6.48
2022-11-04T05:31:24.294Z,6.53
2022-11-04T05:33:50.725Z,6.55
2022-11-04T05:36:17.428Z,6.50
2022-11-04T05:38:43.984Z,6.49
2022-11-04T05:41:25.470Z,6.40
2022-11-04T05:43:56.621Z,6.34
2022-11-04T05:46:23.471Z,6.34
2022-11-04T05:48:50.178Z,6.39
2022-11-04T05:51:19.601Z,6.33
2022-11-04T05:53:46.133Z,6.35
2022-11-04T05:56:12.666Z,6.32
2022-11-04T05:58:39.162Z,6.33
2022-11-04T06:01:32.778Z,6.27
2022-11-04T06:04:01.186Z,6.20
2022-11-04T06:06:30.460Z,6.15
2022-11-04T06:08:58.510Z,6.14
2022-11-04T06:11:26.329Z,6.14
2022-11-04T06:13:55.592Z,6.00
2022-11-04T06:16:22.334Z,5.94
2022-11-04T06:18:49.026Z,5.97
2022-11-04T06:21:15.401Z,5.89
2022-11-04T06:23:42.893Z,5.89
2022-11-04T06:26:10.024Z,5.89
2022-11-04T06:28:36.586Z,5.92
2022-11-04T06:31:05.874Z,5.94
2022-11-04T06:33:36.854Z,5.96
2022-11-04T06:36:05.991Z,6.04
2022-11-04T06:38:34.121Z,6.10
2022-11-04T06:41:00.870Z,6.14
2022-11-04T06:43:27.413Z,6.21
2022-11-04T06:45:57.834Z,6.23
2022-11-04T06:48:25.188Z,6.16
2022-11-04T06:50:52.216Z,6.07
2022-11-04T06:53:18.636Z,6.12
2022-11-04T06:55:45.436Z,6.16
2022-11-04T06:58:11.917Z,6.18
2022-11-04T07:00:38.350Z,6.19
2022-11-04T07:03:04.843Z,6.20
2022-11-04T07:05:33.427Z,6.20
2022-11-04T07:07:59.893Z,6.26
2022-11-04T07:10:26.360Z,6.25
2022-11-04T07:12:54.606Z,6.28
2022-11-04T07:15:27.152Z,6.33
2022-11-04T07:17:54.010Z,6.35
2022-11-04T07:20:20.441Z,6.38
2022-11-04T07:22:47.040Z,6.41
2022-11-04T07:25:13.708Z,6.47
2022-11-04T07:27:40.230Z,6.53
2022-11-04T07:30:07.453Z,6.56
2022-11-04T07:32:33.923Z,6.61
2022-11-04T07:35:00.377Z,6.65
2022-11-04T07:37:27.024Z,6.69
2022-11-04T07:39:53.467Z,6.74
2022-11-04T07:42:20.839Z,6.77
2022-11-04T07:44:53.027Z,6.80
2022-11-04T07:47:19.462Z,6.88
2022-11-04T07:49:45.988Z,6.90
2022-11-04T07:52:12.495Z,6.93
2022-11-04T07:54:38.936Z,7.02
2022-11-04T07:57:05.389Z,7.05
2022-11-04T07:59:32.200Z,7.06
2022-11-04T08:01:58.752Z,7.17
2022-11-04T08:04:25.380Z,7.21
2022-11-04T08:06:51.872Z,7.28
2022-11-04T08:09:18.378Z,7.31
2022-11-04T08:11:44.899Z,7.31
2022-11-04T08:14:11.493Z,7.31
2022-11-04T08:16:37.977Z,7.32
2022-11-04T08:19:04.782Z,7.37
2022-11-04T08:21:33.149Z,7.41
2022-11-04T08:23:59.976Z,7.49
2022-11-04T08:26:26.410Z,7.52
2022-11-04T08:28:53.188Z,7.57
2022-11-04T08:31:28.760Z,7.67
2022-11-04T08:33:56.590Z,7.72
2022-11-04T08:36:26.217Z,7.81
2022-11-04T08:38:53.407Z,7.89
2022-11-04T08:41:23.614Z,7.93
2022-11-04T08:43:50.265Z,7.87
2022-11-04T08:46:17.796Z,7.83
2022-11-04T08:48:44.906Z,7.78
2022-11-04T08:51:15.790Z,7.80
2022-11-04T08:53:42.713Z,7.84
2022-11-04T08:56:11.303Z,7.96
2022-11-04T08:58:37.937Z,8.03
2022-11-04T09:01:06.900Z,8.07
2022-11-04T09:03:34.813Z,8.07
2022-11-04T09:06:01.427Z,8.00
2022-11-04T09:08:27.877Z,8.01
2022-11-04T09:10:54.309Z,8.03
2022-11-04T09:13:20.754Z,8.05
2022-11-04T09:15:48.917Z,8.06
2022-11-04T09:18:15.716Z,8.10
2022-11-04T09:20:42.304Z,8.13
2022-11-04T09:23:09.621Z,8.23
2022-11-04T09:25:36.709Z,8.42
2022-11-04T09:28:04.544Z,8.59
2022-11-04T09:30:31.122Z,8.75
2022-11-04T09:32:58.209Z,8.84
2022-11-04T09:35:25.108Z,8.92
2022-11-04T09:37:51.603Z,8.96
2022-11-04T09:40:21.455Z,8.98
2022-11-04T09:43:23.451Z,9.04
2022-11-04T09:45:50.058Z,9.11
2022-11-04T09:48:33.760Z,9.12
2022-11-04T09:51:05.729Z,9.12
2022-11-04T09:53:45.567Z,9.06
2022-11-04T09:56:30.598Z,9.08
2022-11-04T09:58:57.091Z,9.17
2022-11-04T10:01:33.665Z,9.23
2022-11-04T10:04:18.443Z,9.24
2022-11-04T10:07:23.958Z,9.14
2022-11-04T10:10:20.824Z,9.12
2022-11-04T10:13:04.552Z,9.11
2022-11-04T10:15:47.757Z,9.10
2022-11-04T10:18:33.250Z,9.04
2022-11-04T10:21:25.721Z,9.13
2022-11-04T10:24:17.716Z,9.16
2022-11-04T10:26:59.097Z,9.16
2022-11-04T10:29:49.725Z,9.22
2022-11-04T10:32:28.310Z,9.41
2022-11-04T10:35:04.358Z,9.55
2022-11-04T10:37:31.268Z,9.62
2022-11-04T10:40:18.068Z,9.75
2022-11-04T10:42:44.430Z,9.71
2022-11-04T10:45:13.513Z,9.83
2022-11-04T10:47:48.206Z,9.84
2022-11-04T10:50:31.736Z,9.83
2022-11-04T10:53:22.662Z,9.81
2022-11-04T10:56:32.497Z,9.74
2022-11-04T10:59:04.377Z,9.63
2022-11-04T11:01:35.399Z,9.59
2022-11-04T11:04:06.778Z,9.52
2022-11-04T11:06:35.637Z,9.50
2022-11-04T11:09:20.801Z,9.52
2022-11-04T11:11:51.928Z,9.57
2022-11-04T11:14:33.272Z,9.52
2022-11-04T11:17:14.909Z,9.42
2022-11-04T11:19:52.917Z,9.46
2022-11-04T11:22:31.641Z,9.45
2022-11-04T11:25:25.009Z,9.79
2022-11-04T11:27:55.723Z,9.80
2022-11-04T11:30:28.461Z,9.77
2022-11-04T11:33:19.723Z,9.97
2022-11-04T11:35:52.994Z,10.10
2022-11-04T11:38:25.598Z,10.18
2022-11-04T11:41:22.870Z,10.05
2022-11-04T11:43:45.719Z,9.91
2022-11-04T11:46:13.277Z,9.86
2022-11-04T11:48:44.482Z,9.88
2022-11-04T11:51:14.918Z,9.93
2022-11-04T11:54:02.269Z,9.95
2022-11-04T11:57:11.406Z,9.82
2022-11-04T12:02:47.846Z,9.74
2022-11-04T12:11:34.339Z,10.17
2022-11-04T12:14:09.832Z,10.13
2022-11-04T12:17:01.164Z,10.08
2022-11-04T12:19:37.787Z,9.97
2022-11-04T12:22:43.048Z,10.03
2022-11-04T12:25:44.996Z,10.10
2022-11-04T12:28:17.221Z,10.24
2022-11-04T12:31:02.048Z,10.19
2022-11-04T12:33:48.504Z,9.91
2022-11-04T12:36:47.458Z,9.94
2022-11-04T12:39:31.837Z,9.95
2022-11-04T12:42:21.167Z,9.98
2022-11-04T12:45:05.702Z,10.06
2022-11-04T12:47:42.913Z,9.76
2022-11-04T12:50:20.690Z,9.90
2022-11-04T12:52:59.355Z,10.06
2022-11-04T12:55:43.461Z,10.25
2022-11-04T12:58:32.942Z,10.40
2022-11-04T13:01:14.138Z,10.34
2022-11-04T13:03:51.964Z,10.31
2022-11-04T13:06:34.143Z,10.23
2022-11-04T13:09:06.388Z,10.15
2022-11-04T13:11:38.510Z,10.19
2022-11-04T13:14:19.226Z,10.41
2022-11-04T13:16:50.603Z,10.31
2022-11-04T13:19:26.197Z,10.23
2022-11-04T13:21:54.903Z,10.28
2022-11-04T13:24:30.599Z,10.47
2022-11-04T13:27:03.162Z,10.68
2022-11-04T13:29:34.340Z,10.83
2022-11-04T13:32:00.723Z,11.13
2022-11-04T13:34:56.949Z,10.95
2022-11-04T13:37:29.385Z,11.00
2022-11-04T13:40:06.148Z,10.99
2022-11-04T13:42:53.676Z,10.71
2022-11-04T13:45:20.475Z,10.38
2022-11-04T13:47:53.291Z,10.23
2022-11-04T13:50:32.957Z,10.02
2022-11-04T13:52:59.973Z,9.93
2022-11-04T13:55:26.566Z,9.48
2022-11-04T13:57:55.687Z,9.38
2022-11-04T14:00:25.409Z,9.46
2022-11-04T14:03:00.176Z,9.70
2022-11-04T14:05:29.923Z,9.92
2022-11-04T14:08:02.231Z,9.92
2022-11-04T14:10:50.904Z,10.08
2022-11-04T14:13:34.723Z,10.30
2022-11-04T14:16:09.570Z,10.10
2022-11-04T14:18:44.595Z,9.94
2022-11-04T14:21:16.569Z,10.06
2022-11-04T14:23:47.038Z,10.11
2022-11-04T14:26:17.100Z,10.31
2022-11-04T14:28:46.867Z,10.80
2022-11-04T14:31:33.407Z,10.70
2022-11-04T14:33:59.910Z,10.75
2022-11-04T14:36:31.921Z,10.60
2022-11-04T14:39:22.670Z,10.43
2022-11-04T14:41:49.795Z,10.30
2022-11-04T14:44:21.964Z,9.88
2022-11-04T14:46:52.753Z,9.96
2022-11-04T14:49:38.288Z,9.78
2022-11-04T14:52:13.095Z,9.86
2022-11-04T14:54:39.905Z,9.93
2022-11-04T14:57:18.302Z,9.87
2022-11-04T14:59:45.293Z,10.05
2022-11-04T15:02:19.574Z,9.90
2022-11-04T15:04:49.971Z,9.71
2022-11-04T15:07:27.035Z,9.57
2022-11-04T15:09:53.547Z,9.47
2022-11-04T15:12:38.841Z,9.36
2022-11-04T15:15:32.185Z,9.49
2022-11-04T15:18:28.508Z,9.52
2022-11-04T15:21:00.784Z,9.44
2022-11-04T15:23:30.803Z,9.40
2022-11-04T15:25:59.347Z,9.31
2022-11-04T15:28:29.794Z,9.24
2022-11-04T15:31:03.152Z,9.24
2022-11-04T15:33:30.751Z,9.24
2022-11-04T15:35:57.825Z,9.11
2022-11-04T15:38:27.059Z,9.07
2022-11-04T15:40:54.155Z,9.02
2022-11-04T15:43:20.865Z,8.93
2022-11-04T15:45:47.235Z,8.89
2022-11-04T15:48:34.901Z,8.83
2022-11-04T15:51:15.959Z,8.80
2022-11-04T15:53:52.699Z,8.80
2022-11-04T15:56:23.044Z,8.77
2022-11-04T15:58:51.552Z,8.74
2022-11-04T16:01:19.217Z,8.79
2022-11-04T16:03:51.800Z,8.79
2022-11-04T16:06:33.601Z,8.81
2022-11-04T16:09:25.840Z,8.76
2022-11-04T16:12:07.971Z,8.76
2022-11-04T16:14:34.833Z,8.71
2022-11-04T16:17:01.495Z,8.63
2022-11-04T16:19:30.246Z,8.59
2022-11-04T16:22:04.743Z,8.51
2022-11-04T16:24:34.850Z,8.45
2022-11-04T16:27:01.479Z,8.45
2022-11-04T16:29:31.295Z,8.43
2022-11-04T16:32:18.024Z,8.46
2022-11-04T16:34:46.070Z,8.49
2022-11-04T16:37:12.796Z,8.50
2022-11-04T16:39:39.912Z,8.48
2022-11-04T16:42:07.134Z,8.42
2022-11-04T16:44:33.811Z,8.33
2022-11-04T16:47:00.684Z,8.21
2022-11-04T16:49:27.128Z,8.11
2022-11-04T16:51:56.133Z,8.05
2022-11-04T16:54:23.467Z,7.98
2022-11-04T16:56:50.030Z,8.04
2022-11-04T16:59:16.444Z,8.05
2022-11-04T17:01:43.055Z,8.08
2022-11-04T17:04:09.602Z,8.05
2022-11-04T17:06:36.780Z,8.08
2022-11-04T17:09:04.115Z,8.12
2022-11-04T17:11:30.547Z,8.11
2022-11-04T17:13:57.076Z,8.11
2022-11-04T17:16:23.532Z,8.09
2022-11-04T17:18:49.951Z,8.04
2022-11-04T17:21:23.290Z,8.02
2022-11-04T17:23:49.867Z,7.95
2022-11-04T17:26:16.331Z,7.95
2022-11-04T17:28:42.815Z,7.98
2022-11-04T17:31:16.283Z,7.98
2022-11-04T17:33:42.708Z,7.97
2022-11-04T17:36:17.698Z,7.92
2022-11-04T17:38:44.388Z,7.88
2022-11-04T17:41:29.457Z,7.86
2022-11-04T17:44:01.581Z,7.83
2022-11-04T17:46:38.184Z,7.81
2022-11-04T17:49:10.757Z,7.75
2022-11-04T17:51:39.266Z,7.68
2022-11-04T17:54:06.067Z,7.69
2022-11-04T17:56:32.749Z,7.69
2022-11-04T17:59:01.362Z,7.70
2022-11-04T18:01:28.356Z,7.69
2022-11-04T18:03:55.556Z,7.66
2022-11-04T18:06:22.814Z,7.61
2022-11-04T18:08:54.821Z,7.59
2022-11-04T18:11:41.037Z,7.57
2022-11-04T18:14:10.047Z,7.50
2022-11-04T18:16:41.673Z,7.48
2022-11-04T18:19:08.139Z,7.47
2022-11-04T18:21:34.591Z,7.47
2022-11-04T18:24:01.019Z,7.41
2022-11-04T18:26:27.557Z,7.33
2022-11-04T18:28:54.060Z,7.26
2022-11-04T18:31:27.465Z,7.22
2022-11-04T18:33:54.219Z,7.21
2022-11-04T18:36:21.060Z,7.19
2022-11-04T18:38:47.673Z,7.13
2022-11-04T18:41:14.151Z,7.08
2022-11-04T18:43:40.674Z,7.10
2022-11-04T18:46:15.649Z,7.05
2022-11-04T18:48:42.821Z,7.00
2022-11-04T18:51:11.937Z,6.98
2022-11-04T18:53:38.413Z,6.95
2022-11-04T18:56:10.104Z,6.98
2022-11-04T18:58:38.753Z,6.97
2022-11-04T19:01:08.282Z,6.98
2022-11-04T19:03:35.481Z,7.00
2022-11-04T19:06:13.698Z,6.92
2022-11-04T19:08:46.306Z,6.96
2022-11-04T19:11:23.407Z,6.97
2022-11-04T19:13:55.714Z,6.98
2022-11-04T19:16:22.377Z,6.98
2022-11-04T19:18:49.524Z,7.03
2022-11-04T19:21:18.643Z,7.05
2022-11-04T19:23:45.330Z,7.03
2022-11-04T19:26:14.414Z,6.93
2022-11-04T19:28:48.290Z,6.92
2022-11-04T19:31:19.327Z,6.97
2022-11-04T19:33:47.274Z,7.00
2022-11-04T19:36:15.792Z,6.99
2022-11-04T19:38:43.651Z,6.97
2022-11-04T19:41:34.343Z,6.97
2022-11-04T19:44:02.859Z,6.95
2022-11-04T19:46:29.333Z,6.94
2022-11-04T19:48:56.551Z,6.92
2022-11-04T19:51:26.643Z,6.87
2022-11-04T19:53:57.313Z,6.90
2022-11-04T19:56:24.307Z,6.85
2022-11-04T19:58:50.772Z,6.88
2022-11-04T20:01:18.459Z,6.84
2022-11-04T20:03:45.057Z,6.82
2022-11-04T20:06:14.623Z,6.86
2022-11-04T20:08:44.087Z,6.93
2022-11-04T20:11:12.278Z,6.97
2022-11-04T20:13:47.048Z,6.99
2022-11-04T20:16:16.939Z,6.96
2022-11-04T20:18:44.875Z,6.95
2022-11-04T20:21:12.064Z,6.96
2022-11-04T20:23:38.625Z,7.00
2022-11-04T20:26:20.473Z,6.95
2022-11-04T20:28:47.608Z,7.01
2022-11-04T20:31:19.549Z,6.97
2022-11-04T20:33:47.328Z,6.93
2022-11-04T20:36:15.667Z,6.89
2022-11-04T20:38:42.160Z,6.89
2022-11-04T20:41:15.312Z,6.80
2022-11-04T20:43:42.318Z,6.87
2022-11-04T20:46:11.835Z,6.83
2022-11-04T20:48:39.393Z,6.85
2022-11-04T20:51:11.261Z,6.83
2022-11-04T20:53:38.040Z,6.85
2022-11-04T20:56:06.625Z,6.84
2022-11-04T20:58:38.762Z,6.87
2022-11-04T21:01:10.629Z,6.87
2022-11-04T21:03:37.212Z,6.87
2022-11-04T21:06:03.949Z,6.80
2022-11-04T21:08:33.661Z,6.76
2022-11-04T21:11:00.390Z,6.76
2022-11-04T21:13:26.841Z,6.78
2022-11-04T21:15:58.004Z,6.82
2022-11-04T21:18:24.616Z,6.75
2022-11-04T21:20:51.717Z,6.74
2022-11-04T21:23:22.402Z,6.71
2022-11-04T21:25:57.840Z,6.69
2022-11-04T21:28:25.433Z,6.74
2022-11-04T21:30:53.727Z,6.67
2022-11-04T21:33:20.659Z,6.76
2022-11-04T21:35:50.388Z,6.77
2022-11-04T21:38:18.217Z,6.77
2022-11-04T21:40:45.091Z,6.83
2022-11-04T21:43:12.564Z,6.89
2022-11-04T21:45:39.143Z,6.84
2022-11-04T21:48:05.806Z,6.85
2022-11-04T21:50:32.254Z,6.88
2022-11-04T21:52:58.696Z,6.84
2022-11-04T21:55:25.810Z,6.92
2022-11-04T21:57:52.325Z,6.94
2022-11-04T22:00:18.776Z,6.93
2022-11-04T22:02:50.677Z,6.93
2022-11-04T22:05:17.557Z,6.92
2022-11-04T22:08:03.068Z,6.85
2022-11-04T22:10:29.598Z,6.87
2022-11-04T22:12:56.212Z,6.90
2022-11-04T22:15:41.624Z,6.95
2022-11-04T22:18:08.179Z,6.92
2022-11-04T22:20:36.211Z,6.85
2022-11-04T22:23:03.152Z,6.84
2022-11-04T22:25:30.461Z,6.79
2022-11-04T22:27:57.089Z,6.77
2022-11-04T22:30:23.723Z,6.76
2022-11-04T22:32:51.111Z,6.73
2022-11-04T22:35:17.540Z,6.74
2022-11-04T22:37:44.011Z,6.77
2022-11-04T22:40:10.743Z,6.74
2022-11-04T22:42:37.313Z,6.70
2022-11-04T22:45:04.004Z,6.66
2022-11-04T22:47:30.682Z,6.65
2022-11-04T22:49:57.140Z,6.63
2022-11-04T22:52:23.588Z,6.62
2022-11-04T22:54:50.110Z,6.61
2022-11-04T22:57:16.534Z,6.63
2022-11-04T22:59:42.973Z,6.65
2022-11-04T23:02:09.518Z,6.70
2022-11-04T23:07:04.790Z,6.67
2022-11-04T23:09:32.927Z,6.64
2022-11-04T23:12:18.020Z,6.67
2022-11-04T23:15:03.286Z,6.70
2022-11-04T23:17:48.095Z,6.69
2022-11-04T23:20:15.804Z,6.65
2022-11-04T23:23:00.920Z,6.59
2022-11-04T23:25:27.498Z,6.59
2022-11-04T23:28:14.081Z,6.59
2022-11-04T23:30:52.035Z,6.60
2022-11-04T23:33:18.595Z,6.60
2022-11-04T23:36:06.264Z,6.63
2022-11-04T23:38:33.716Z,6.64
2022-11-04T23:41:21.720Z,6.55
2022-11-04T23:43:48.277Z,6.50
2022-11-04T23:46:39.439Z,6.62
2022-11-04T23:49:29.334Z,6.64
2022-11-04T23:52:14.201Z,6.59
2022-11-04T23:54:59.209Z,6.63
2022-11-04T23:57:44.153Z,6.67
